sensor_id;sensor_type;location;lat;lon;timestamp;temperature;humidity
17726;DHT22;8983;53.156;17.960;2024-01-30T00:00:36;0.70;99.90
17726;DHT22;8983;53.156;17.960;2024-01-30T00:03:06;0.70;99.90
17726;DHT22;8983;53.156;17.960;2024-01-30T00:05:34;0.70;99.90
17726;DHT22;8983;53.156;17.960;2024-01-30T00:08:03;0.70;99.90
17726;DHT22;8983;53.156;17.960;2024-01-30T00:10:31;0.70;99.90
17726;DHT22;8983;53.156;17.960;2024-01-30T00:12:59;0.70;99.90
17726;DHT22;8983;53.156;17.960;2024-01-30T00:15:27;0.70;99.90
17726;DHT22;8983;53.156;17.960;2024-01-30T00:17:56;0.70;99.90
17726;DHT22;8983;53.156;17.960;2024-01-30T00:20:25;0.70;99.90
17726;DHT22;8983;53.156;17.960;2024-01-30T00:22:53;0.70;99.90
17726;DHT22;8983;53.156;17.960;2024-01-30T00:25:21;0.70;99.90
17726;DHT22;8983;53.156;17.960;2024-01-30T00:27:49;0.70;99.90
17726;DHT22;8983;53.156;17.960;2024-01-30T00:30:17;0.70;99.90
17726;DHT22;8983;53.156;17.960;2024-01-30T00:32:45;0.60;99.90
17726;DHT22;8983;53.156;17.960;2024-01-30T00:35:15;0.60;99.90
17726;DHT22;8983;53.156;17.960;2024-01-30T00:37:43;0.60;99.90
17726;DHT22;8983;53.156;17.960;2024-01-30T00:40:12;0.60;99.90
17726;DHT22;8983;53.156;17.960;2024-01-30T00:42:43;0.60;99.90
17726;DHT22;8983;53.156;17.960;2024-01-30T00:45:12;0.60;99.90
17726;DHT22;8983;53.156;17.960;2024-01-30T00:47:40;0.50;99.90
17726;DHT22;8983;53.156;17.960;2024-01-30T00:50:09;0.50;99.90
17726;DHT22;8983;53.156;17.960;2024-01-30T00:52:39;0.50;99.90
17726;DHT22;8983;53.156;17.960;2024-01-30T00:55:08;0.50;99.90
17726;DHT22;8983;53.156;17.960;2024-01-30T00:57:36;0.50;99.90
17726;DHT22;8983;53.156;17.960;2024-01-30T01:00:05;0.40;99.90
17726;DHT22;8983;53.156;17.960;2024-01-30T01:02:37;0.40;99.90
17726;DHT22;8983;53.156;17.960;2024-01-30T01:05:06;0.40;99.90
17726;DHT22;8983;53.156;17.960;2024-01-30T01:07:35;0.40;99.90
17726;DHT22;8983;53.156;17.960;2024-01-30T01:10:05;0.30;99.90
17726;DHT22;8983;53.156;17.960;2024-01-30T01:12:33;0.30;99.90
17726;DHT22;8983;53.156;17.960;2024-01-30T01:15:01;0.30;99.90
17726;DHT22;8983;53.156;17.960;2024-01-30T01:17:30;0.30;99.90
17726;DHT22;8983;53.156;17.960;2024-01-30T01:19:58;0.30;99.90
17726;DHT22;8983;53.156;17.960;2024-01-30T01:22:26;0.30;99.90
17726;DHT22;8983;53.156;17.960;2024-01-30T01:24:54;0.20;99.90
17726;DHT22;8983;53.156;17.960;2024-01-30T01:27:24;0.20;99.90
17726;DHT22;8983;53.156;17.960;2024-01-30T01:29:52;0.20;99.90
17726;DHT22;8983;53.156;17.960;2024-01-30T01:32:20;0.20;99.90
17726;DHT22;8983;53.156;17.960;2024-01-30T01:34:48;0.20;99.90
17726;DHT22;8983;53.156;17.960;2024-01-30T01:37:16;0.20;99.90
17726;DHT22;8983;53.156;17.960;2024-01-30T01:39:44;0.10;99.90
17726;DHT22;8983;53.156;17.960;2024-01-30T01:42:13;0.10;99.90
17726;DHT22;8983;53.156;17.960;2024-01-30T01:44:42;0.10;99.90
17726;DHT22;8983;53.156;17.960;2024-01-30T01:47:10;0.00;99.90
17726;DHT22;8983;53.156;17.960;2024-01-30T01:49:39;0.00;99.90
17726;DHT22;8983;53.156;17.960;2024-01-30T01:52:07;0.00;99.90
17726;DHT22;8983;53.156;17.960;2024-01-30T01:54:35;0.00;99.90
17726;DHT22;8983;53.156;17.960;2024-01-30T01:57:04;-0.10;99.90
17726;DHT22;8983;53.156;17.960;2024-01-30T01:59:33;-0.10;99.90
17726;DHT22;8983;53.156;17.960;2024-01-30T02:02:02;-0.10;99.90
17726;DHT22;8983;53.156;17.960;2024-01-30T02:04:31;-0.10;99.90
17726;DHT22;8983;53.156;17.960;2024-01-30T02:07:00;-0.20;99.90
17726;DHT22;8983;53.156;17.960;2024-01-30T02:09:28;-0.20;99.90
17726;DHT22;8983;53.156;17.960;2024-01-30T02:11:56;-0.20;99.90
17726;DHT22;8983;53.156;17.960;2024-01-30T02:14:24;-0.20;99.90
17726;DHT22;8983;53.156;17.960;2024-01-30T02:16:57;-0.20;99.90
17726;DHT22;8983;53.156;17.960;2024-01-30T02:19:26;-0.30;99.90
17726;DHT22;8983;53.156;17.960;2024-01-30T02:21:56;-0.30;99.90
17726;DHT22;8983;53.156;17.960;2024-01-30T02:24:24;-0.30;99.90
17726;DHT22;8983;53.156;17.960;2024-01-30T02:26:52;-0.30;99.90
17726;DHT22;8983;53.156;17.960;2024-01-30T02:29:20;-0.30;99.90
17726;DHT22;8983;53.156;17.960;2024-01-30T02:31:48;-0.20;99.90
17726;DHT22;8983;53.156;17.960;2024-01-30T02:34:16;-0.20;99.90
17726;DHT22;8983;53.156;17.960;2024-01-30T02:36:46;-0.20;99.90
17726;DHT22;8983;53.156;17.960;2024-01-30T02:39:15;-0.20;99.90
17726;DHT22;8983;53.156;17.960;2024-01-30T02:41:44;-0.10;99.90
17726;DHT22;8983;53.156;17.960;2024-01-30T02:44:12;-0.10;99.90
17726;DHT22;8983;53.156;17.960;2024-01-30T02:46:40;-0.10;99.90
17726;DHT22;8983;53.156;17.960;2024-01-30T02:49:08;-0.10;99.90
17726;DHT22;8983;53.156;17.960;2024-01-30T02:51:36;-0.10;99.90
17726;DHT22;8983;53.156;17.960;2024-01-30T02:54:04;-0.10;99.90
17726;DHT22;8983;53.156;17.960;2024-01-30T02:56:34;-0.20;99.90
17726;DHT22;8983;53.156;17.960;2024-01-30T02:59:02;-0.20;99.90
17726;DHT22;8983;53.156;17.960;2024-01-30T03:01:30;-0.20;99.90
17726;DHT22;8983;53.156;17.960;2024-01-30T03:03:58;-0.20;99.90
17726;DHT22;8983;53.156;17.960;2024-01-30T03:06:27;-0.20;99.90
17726;DHT22;8983;53.156;17.960;2024-01-30T03:08:55;-0.20;99.90
17726;DHT22;8983;53.156;17.960;2024-01-30T03:11:22;-0.20;99.90
17726;DHT22;8983;53.156;17.960;2024-01-30T03:13:51;-0.20;99.90
17726;DHT22;8983;53.156;17.960;2024-01-30T03:16:19;-0.20;99.90
17726;DHT22;8983;53.156;17.960;2024-01-30T03:18:48;-0.20;99.90
17726;DHT22;8983;53.156;17.960;2024-01-30T03:21:16;-0.20;99.90
17726;DHT22;8983;53.156;17.960;2024-01-30T03:23:44;-0.20;99.90
17726;DHT22;8983;53.156;17.960;2024-01-30T03:26:12;-0.10;99.90
17726;DHT22;8983;53.156;17.960;2024-01-30T03:28:41;-0.20;99.90
17726;DHT22;8983;53.156;17.960;2024-01-30T03:31:12;-0.10;99.90
17726;DHT22;8983;53.156;17.960;2024-01-30T03:33:40;-0.10;99.90
17726;DHT22;8983;53.156;17.960;2024-01-30T03:36:09;-0.20;99.90
17726;DHT22;8983;53.156;17.960;2024-01-30T03:38:37;-0.10;99.90
17726;DHT22;8983;53.156;17.960;2024-01-30T03:41:08;-0.10;99.90
17726;DHT22;8983;53.156;17.960;2024-01-30T03:43:36;0.00;99.90
17726;DHT22;8983;53.156;17.960;2024-01-30T03:46:04;-0.10;99.90
17726;DHT22;8983;53.156;17.960;2024-01-30T03:48:34;-0.10;99.90
17726;DHT22;8983;53.156;17.960;2024-01-30T03:51:02;-0.10;99.90
17726;DHT22;8983;53.156;17.960;2024-01-30T03:53:30;-0.10;99.90
17726;DHT22;8983;53.156;17.960;2024-01-30T03:55:58;-0.10;99.90
17726;DHT22;8983;53.156;17.960;2024-01-30T03:58:26;0.40;99.90
17726;DHT22;8983;53.156;17.960;2024-01-30T04:00:55;0.00;99.90
17726;DHT22;8983;53.156;17.960;2024-01-30T04:03:23;-0.10;99.90
17726;DHT22;8983;53.156;17.960;2024-01-30T04:05:53;-0.10;99.90
17726;DHT22;8983;53.156;17.960;2024-01-30T04:08:21;-0.20;99.90
17726;DHT22;8983;53.156;17.960;2024-01-30T04:10:49;-0.10;99.90
17726;DHT22;8983;53.156;17.960;2024-01-30T04:13:17;-0.10;99.90
17726;DHT22;8983;53.156;17.960;2024-01-30T04:15:45;-0.20;99.90
17726;DHT22;8983;53.156;17.960;2024-01-30T04:18:13;-0.10;99.90
17726;DHT22;8983;53.156;17.960;2024-01-30T04:20:42;-0.10;99.90
17726;DHT22;8983;53.156;17.960;2024-01-30T04:23:11;-0.10;99.90
17726;DHT22;8983;53.156;17.960;2024-01-30T04:25:40;-0.10;99.90
17726;DHT22;8983;53.156;17.960;2024-01-30T04:28:08;-0.10;99.90
17726;DHT22;8983;53.156;17.960;2024-01-30T04:30:39;-0.10;99.90
17726;DHT22;8983;53.156;17.960;2024-01-30T04:33:07;-0.20;99.90
17726;DHT22;8983;53.156;17.960;2024-01-30T04:35:36;-0.10;99.90
17726;DHT22;8983;53.156;17.960;2024-01-30T04:38:04;-0.10;99.90
17726;DHT22;8983;53.156;17.960;2024-01-30T04:40:33;-0.10;99.90
17726;DHT22;8983;53.156;17.960;2024-01-30T04:43:01;-0.10;99.90
17726;DHT22;8983;53.156;17.960;2024-01-30T04:45:29;-0.10;99.90
17726;DHT22;8983;53.156;17.960;2024-01-30T04:47:57;-0.10;99.90
17726;DHT22;8983;53.156;17.960;2024-01-30T04:50:26;-0.10;99.90
17726;DHT22;8983;53.156;17.960;2024-01-30T04:52:54;-0.10;99.90
17726;DHT22;8983;53.156;17.960;2024-01-30T04:55:22;-0.10;99.90
17726;DHT22;8983;53.156;17.960;2024-01-30T04:57:51;-0.10;99.90
17726;DHT22;8983;53.156;17.960;2024-01-30T05:00:20;-0.10;99.90
17726;DHT22;8983;53.156;17.960;2024-01-30T05:02:48;-0.10;99.90
17726;DHT22;8983;53.156;17.960;2024-01-30T05:05:16;-0.10;99.90
17726;DHT22;8983;53.156;17.960;2024-01-30T05:07:44;-0.10;99.90
17726;DHT22;8983;53.156;17.960;2024-01-30T05:10:12;-0.10;99.90
17726;DHT22;8983;53.156;17.960;2024-01-30T05:12:40;-0.10;99.90
17726;DHT22;8983;53.156;17.960;2024-01-30T05:15:11;-0.10;99.90
17726;DHT22;8983;53.156;17.960;2024-01-30T05:17:39;-0.10;99.90
17726;DHT22;8983;53.156;17.960;2024-01-30T05:20:08;-0.10;99.90
17726;DHT22;8983;53.156;17.960;2024-01-30T05:22:37;-0.10;99.90
17726;DHT22;8983;53.156;17.960;2024-01-30T05:25:12;-0.10;99.90
17726;DHT22;8983;53.156;17.960;2024-01-30T05:27:40;0.10;99.90
17726;DHT22;8983;53.156;17.960;2024-01-30T05:30:11;-0.10;99.90
17726;DHT22;8983;53.156;17.960;2024-01-30T05:32:39;-0.10;99.90
17726;DHT22;8983;53.156;17.960;2024-01-30T05:35:08;0.50;99.90
17726;DHT22;8983;53.156;17.960;2024-01-30T05:37:35;-0.10;99.90
17726;DHT22;8983;53.156;17.960;2024-01-30T05:40:03;-0.10;99.90
17726;DHT22;8983;53.156;17.960;2024-01-30T05:42:32;-0.10;99.90
17726;DHT22;8983;53.156;17.960;2024-01-30T05:45:00;-0.10;99.90
17726;DHT22;8983;53.156;17.960;2024-01-30T05:47:29;-0.10;99.90
17726;DHT22;8983;53.156;17.960;2024-01-30T05:49:57;0.30;99.90
17726;DHT22;8983;53.156;17.960;2024-01-30T05:52:26;-0.10;99.90
17726;DHT22;8983;53.156;17.960;2024-01-30T05:54:54;-0.10;99.90
17726;DHT22;8983;53.156;17.960;2024-01-30T05:57:22;-0.10;99.90
17726;DHT22;8983;53.156;17.960;2024-01-30T05:59:49;-0.10;99.90
17726;DHT22;8983;53.156;17.960;2024-01-30T06:02:18;-0.10;99.90
17726;DHT22;8983;53.156;17.960;2024-01-30T06:04:48;-0.10;99.90
17726;DHT22;8983;53.156;17.960;2024-01-30T06:07:16;-0.10;99.90
17726;DHT22;8983;53.156;17.960;2024-01-30T06:09:45;-0.10;99.90
17726;DHT22;8983;53.156;17.960;2024-01-30T06:12:13;-0.10;99.90
17726;DHT22;8983;53.156;17.960;2024-01-30T06:14:41;0.30;99.90
17726;DHT22;8983;53.156;17.960;2024-01-30T06:17:13;-0.10;99.90
17726;DHT22;8983;53.156;17.960;2024-01-30T06:19:41;0.00;99.90
17726;DHT22;8983;53.156;17.960;2024-01-30T06:22:10;-0.10;99.90
17726;DHT22;8983;53.156;17.960;2024-01-30T06:24:38;-0.10;99.90
17726;DHT22;8983;53.156;17.960;2024-01-30T06:27:07;-0.10;99.90
17726;DHT22;8983;53.156;17.960;2024-01-30T06:29:35;-0.10;99.90
17726;DHT22;8983;53.156;17.960;2024-01-30T06:32:04;-0.10;99.90
17726;DHT22;8983;53.156;17.960;2024-01-30T06:34:32;-0.10;99.90
17726;DHT22;8983;53.156;17.960;2024-01-30T06:37:01;-0.10;99.90
17726;DHT22;8983;53.156;17.960;2024-01-30T06:39:30;-0.10;99.90
17726;DHT22;8983;53.156;17.960;2024-01-30T06:41:58;-0.10;99.90
17726;DHT22;8983;53.156;17.960;2024-01-30T06:44:26;0.30;99.90
17726;DHT22;8983;53.156;17.960;2024-01-30T06:46:59;-0.10;99.90
17726;DHT22;8983;53.156;17.960;2024-01-30T06:49:27;-0.10;99.90
17726;DHT22;8983;53.156;17.960;2024-01-30T06:51:55;-0.10;99.90
17726;DHT22;8983;53.156;17.960;2024-01-30T06:54:24;-0.10;99.90
17726;DHT22;8983;53.156;17.960;2024-01-30T06:56:53;-0.10;99.90
17726;DHT22;8983;53.156;17.960;2024-01-30T06:59:21;-0.10;99.90
17726;DHT22;8983;53.156;17.960;2024-01-30T07:01:49;-0.10;99.90
17726;DHT22;8983;53.156;17.960;2024-01-30T07:04:18;-0.10;99.90
17726;DHT22;8983;53.156;17.960;2024-01-30T07:06:46;0.00;99.90
17726;DHT22;8983;53.156;17.960;2024-01-30T07:09:14;-0.10;99.90
17726;DHT22;8983;53.156;17.960;2024-01-30T07:11:42;-0.10;99.90
17726;DHT22;8983;53.156;17.960;2024-01-30T07:14:12;0.20;99.90
17726;DHT22;8983;53.156;17.960;2024-01-30T07:16:40;-0.10;99.90
17726;DHT22;8983;53.156;17.960;2024-01-30T07:19:08;-0.10;99.90
17726;DHT22;8983;53.156;17.960;2024-01-30T07:21:37;-0.10;99.90
17726;DHT22;8983;53.156;17.960;2024-01-30T07:24:07;-0.10;99.90
17726;DHT22;8983;53.156;17.960;2024-01-30T07:26:35;-0.10;99.90
17726;DHT22;8983;53.156;17.960;2024-01-30T07:29:03;-0.10;99.90
17726;DHT22;8983;53.156;17.960;2024-01-30T07:31:33;-0.10;99.90
17726;DHT22;8983;53.156;17.960;2024-01-30T07:34:01;-0.10;99.90
17726;DHT22;8983;53.156;17.960;2024-01-30T07:36:30;-0.10;99.90
17726;DHT22;8983;53.156;17.960;2024-01-30T07:38:58;-0.10;99.90
17726;DHT22;8983;53.156;17.960;2024-01-30T07:41:26;-0.10;99.90
17726;DHT22;8983;53.156;17.960;2024-01-30T07:43:54;-0.10;99.90
17726;DHT22;8983;53.156;17.960;2024-01-30T07:46:22;-0.10;99.90
17726;DHT22;8983;53.156;17.960;2024-01-30T07:48:52;0.00;99.90
17726;DHT22;8983;53.156;17.960;2024-01-30T07:51:21;0.00;99.90
17726;DHT22;8983;53.156;17.960;2024-01-30T07:53:49;-0.10;99.90
17726;DHT22;8983;53.156;17.960;2024-01-30T07:56:17;0.00;99.90
17726;DHT22;8983;53.156;17.960;2024-01-30T07:58:45;0.00;99.90
17726;DHT22;8983;53.156;17.960;2024-01-30T08:01:14;0.00;99.90
17726;DHT22;8983;53.156;17.960;2024-01-30T08:03:43;0.00;99.90
17726;DHT22;8983;53.156;17.960;2024-01-30T08:06:12;0.00;99.90
17726;DHT22;8983;53.156;17.960;2024-01-30T08:08:41;0.00;99.90
17726;DHT22;8983;53.156;17.960;2024-01-30T08:11:09;0.00;99.90
17726;DHT22;8983;53.156;17.960;2024-01-30T08:13:37;0.00;99.90
17726;DHT22;8983;53.156;17.960;2024-01-30T08:16:05;0.00;99.90
17726;DHT22;8983;53.156;17.960;2024-01-30T08:18:36;0.00;99.90
17726;DHT22;8983;53.156;17.960;2024-01-30T08:21:04;0.00;99.90
17726;DHT22;8983;53.156;17.960;2024-01-30T08:23:34;0.00;99.90
17726;DHT22;8983;53.156;17.960;2024-01-30T08:26:02;0.00;99.90
17726;DHT22;8983;53.156;17.960;2024-01-30T08:28:31;0.00;99.90
17726;DHT22;8983;53.156;17.960;2024-01-30T08:30:59;0.00;99.90
17726;DHT22;8983;53.156;17.960;2024-01-30T08:33:27;0.10;99.90
17726;DHT22;8983;53.156;17.960;2024-01-30T08:35:55;0.00;99.90
17726;DHT22;8983;53.156;17.960;2024-01-30T08:38:24;0.20;99.90
17726;DHT22;8983;53.156;17.960;2024-01-30T08:40:54;0.10;99.90
17726;DHT22;8983;53.156;17.960;2024-01-30T08:43:23;0.10;99.90
17726;DHT22;8983;53.156;17.960;2024-01-30T08:45:51;0.10;99.90
17726;DHT22;8983;53.156;17.960;2024-01-30T08:48:19;0.10;99.90
17726;DHT22;8983;53.156;17.960;2024-01-30T08:50:48;0.10;99.90
17726;DHT22;8983;53.156;17.960;2024-01-30T08:53:16;0.10;99.90
17726;DHT22;8983;53.156;17.960;2024-01-30T08:55:44;0.10;99.90
17726;DHT22;8983;53.156;17.960;2024-01-30T08:58:14;0.10;99.90
17726;DHT22;8983;53.156;17.960;2024-01-30T09:00:42;0.10;99.90
17726;DHT22;8983;53.156;17.960;2024-01-30T09:03:10;0.10;99.90
17726;DHT22;8983;53.156;17.960;2024-01-30T09:05:38;0.20;99.90
17726;DHT22;8983;53.156;17.960;2024-01-30T09:08:06;0.20;99.90
17726;DHT22;8983;53.156;17.960;2024-01-30T09:10:35;0.20;99.90
17726;DHT22;8983;53.156;17.960;2024-01-30T09:13:04;0.20;99.90
17726;DHT22;8983;53.156;17.960;2024-01-30T09:15:33;0.20;99.90
17726;DHT22;8983;53.156;17.960;2024-01-30T09:18:02;0.20;99.90
17726;DHT22;8983;53.156;17.960;2024-01-30T09:20:31;0.20;99.90
17726;DHT22;8983;53.156;17.960;2024-01-30T09:23:01;0.20;99.90
17726;DHT22;8983;53.156;17.960;2024-01-30T09:25:29;0.20;99.90
17726;DHT22;8983;53.156;17.960;2024-01-30T09:27:57;0.30;99.90
17726;DHT22;8983;53.156;17.960;2024-01-30T09:30:25;0.30;99.90
17726;DHT22;8983;53.156;17.960;2024-01-30T09:32:54;0.30;99.90
17726;DHT22;8983;53.156;17.960;2024-01-30T09:35:22;0.40;99.90
17726;DHT22;8983;53.156;17.960;2024-01-30T09:37:50;0.40;99.90
17726;DHT22;8983;53.156;17.960;2024-01-30T09:40:19;0.50;99.90
17726;DHT22;8983;53.156;17.960;2024-01-30T09:42:47;0.60;99.90
17726;DHT22;8983;53.156;17.960;2024-01-30T09:45:18;0.70;99.90
17726;DHT22;8983;53.156;17.960;2024-01-30T09:47:46;0.80;99.90
17726;DHT22;8983;53.156;17.960;2024-01-30T09:50:16;0.90;99.90
17726;DHT22;8983;53.156;17.960;2024-01-30T09:52:45;1.00;99.90
17726;DHT22;8983;53.156;17.960;2024-01-30T09:55:13;1.10;99.90
17726;DHT22;8983;53.156;17.960;2024-01-30T09:57:42;1.20;99.90
17726;DHT22;8983;53.156;17.960;2024-01-30T10:00:11;1.40;99.90
17726;DHT22;8983;53.156;17.960;2024-01-30T10:02:40;1.50;99.90
17726;DHT22;8983;53.156;17.960;2024-01-30T10:05:08;1.60;99.90
17726;DHT22;8983;53.156;17.960;2024-01-30T10:07:38;1.70;99.90
17726;DHT22;8983;53.156;17.960;2024-01-30T10:10:07;1.80;99.90
17726;DHT22;8983;53.156;17.960;2024-01-30T10:12:35;2.00;99.90
17726;DHT22;8983;53.156;17.960;2024-01-30T10:15:07;2.20;99.90
17726;DHT22;8983;53.156;17.960;2024-01-30T10:17:37;2.40;99.90
17726;DHT22;8983;53.156;17.960;2024-01-30T10:20:06;2.60;99.90
17726;DHT22;8983;53.156;17.960;2024-01-30T10:22:35;2.80;99.90
17726;DHT22;8983;53.156;17.960;2024-01-30T10:25:06;3.00;99.90
17726;DHT22;8983;53.156;17.960;2024-01-30T10:27:34;3.20;99.90
17726;DHT22;8983;53.156;17.960;2024-01-30T10:30:02;3.30;99.90
17726;DHT22;8983;53.156;17.960;2024-01-30T10:32:31;3.50;99.90
17726;DHT22;8983;53.156;17.960;2024-01-30T10:34:59;3.60;99.90
17726;DHT22;8983;53.156;17.960;2024-01-30T10:37:28;3.80;99.90
17726;DHT22;8983;53.156;17.960;2024-01-30T10:40:02;4.00;99.90
17726;DHT22;8983;53.156;17.960;2024-01-30T10:42:36;4.20;99.90
17726;DHT22;8983;53.156;17.960;2024-01-30T10:45:07;4.50;99.90
17726;DHT22;8983;53.156;17.960;2024-01-30T10:47:36;4.50;99.90
17726;DHT22;8983;53.156;17.960;2024-01-30T10:50:05;4.60;99.90
17726;DHT22;8983;53.156;17.960;2024-01-30T10:52:36;4.90;99.90
17726;DHT22;8983;53.156;17.960;2024-01-30T10:55:05;4.90;99.90
17726;DHT22;8983;53.156;17.960;2024-01-30T10:57:36;5.00;99.90
17726;DHT22;8983;53.156;17.960;2024-01-30T11:00:07;5.20;99.90
17726;DHT22;8983;53.156;17.960;2024-01-30T11:02:39;5.40;99.90
17726;DHT22;8983;53.156;17.960;2024-01-30T11:05:08;5.50;99.90
17726;DHT22;8983;53.156;17.960;2024-01-30T11:07:39;5.70;99.90
17726;DHT22;8983;53.156;17.960;2024-01-30T11:10:08;5.80;99.90
17726;DHT22;8983;53.156;17.960;2024-01-30T11:12:41;6.00;99.90
17726;DHT22;8983;53.156;17.960;2024-01-30T11:15:12;6.00;99.90
17726;DHT22;8983;53.156;17.960;2024-01-30T11:17:45;6.10;99.90
17726;DHT22;8983;53.156;17.960;2024-01-30T11:20:15;6.10;99.90
17726;DHT22;8983;53.156;17.960;2024-01-30T11:22:45;6.10;99.90
17726;DHT22;8983;53.156;17.960;2024-01-30T11:25:14;6.10;99.90
17726;DHT22;8983;53.156;17.960;2024-01-30T11:27:44;6.00;99.90
17726;DHT22;8983;53.156;17.960;2024-01-30T11:30:21;6.00;99.90
17726;DHT22;8983;53.156;17.960;2024-01-30T11:33:00;6.00;99.90
17726;DHT22;8983;53.156;17.960;2024-01-30T11:35:31;6.10;99.90
17726;DHT22;8983;53.156;17.960;2024-01-30T11:38:00;6.10;99.90
17726;DHT22;8983;53.156;17.960;2024-01-30T11:40:30;6.10;99.90
17726;DHT22;8983;53.156;17.960;2024-01-30T11:43:01;6.20;99.90
17726;DHT22;8983;53.156;17.960;2024-01-30T11:45:30;6.20;99.90
17726;DHT22;8983;53.156;17.960;2024-01-30T11:47:59;6.30;99.90
17726;DHT22;8983;53.156;17.960;2024-01-30T11:50:30;6.30;99.90
17726;DHT22;8983;53.156;17.960;2024-01-30T11:52:59;6.40;99.90
17726;DHT22;8983;53.156;17.960;2024-01-30T11:55:29;6.40;99.90
17726;DHT22;8983;53.156;17.960;2024-01-30T11:58:02;6.50;99.90
17726;DHT22;8983;53.156;17.960;2024-01-30T12:00:32;6.60;99.90
17726;DHT22;8983;53.156;17.960;2024-01-30T12:03:02;6.70;99.90
17726;DHT22;8983;53.156;17.960;2024-01-30T12:05:32;6.80;99.90
17726;DHT22;8983;53.156;17.960;2024-01-30T12:08:00;7.00;99.90
17726;DHT22;8983;53.156;17.960;2024-01-30T12:10:29;7.30;99.90
17726;DHT22;8983;53.156;17.960;2024-01-30T12:12:58;7.20;99.90
17726;DHT22;8983;53.156;17.960;2024-01-30T12:15:28;7.30;99.90
17726;DHT22;8983;53.156;17.960;2024-01-30T12:18:04;7.50;99.90
17726;DHT22;8983;53.156;17.960;2024-01-30T12:20:33;7.60;99.90
17726;DHT22;8983;53.156;17.960;2024-01-30T12:23:02;7.80;99.90
17726;DHT22;8983;53.156;17.960;2024-01-30T12:25:30;7.90;99.90
17726;DHT22;8983;53.156;17.960;2024-01-30T12:27:59;8.00;99.90
17726;DHT22;8983;53.156;17.960;2024-01-30T12:30:28;8.10;99.90
17726;DHT22;8983;53.156;17.960;2024-01-30T12:32:57;8.20;99.90
17726;DHT22;8983;53.156;17.960;2024-01-30T12:35:25;8.20;99.90
17726;DHT22;8983;53.156;17.960;2024-01-30T12:37:58;8.30;99.90
17726;DHT22;8983;53.156;17.960;2024-01-30T12:40:26;8.40;99.90
17726;DHT22;8983;53.156;17.960;2024-01-30T12:42:56;8.50;99.90
17726;DHT22;8983;53.156;17.960;2024-01-30T12:45:25;8.50;99.90
17726;DHT22;8983;53.156;17.960;2024-01-30T12:47:54;8.60;99.90
17726;DHT22;8983;53.156;17.960;2024-01-30T12:50:23;8.60;99.90
17726;DHT22;8983;53.156;17.960;2024-01-30T12:52:51;8.60;99.90
17726;DHT22;8983;53.156;17.960;2024-01-30T12:55:19;8.60;99.90
17726;DHT22;8983;53.156;17.960;2024-01-30T12:57:47;8.60;99.90
17726;DHT22;8983;53.156;17.960;2024-01-30T13:00:15;8.60;99.90
17726;DHT22;8983;53.156;17.960;2024-01-30T13:02:44;8.60;99.90
17726;DHT22;8983;53.156;17.960;2024-01-30T13:05:14;8.60;99.90
17726;DHT22;8983;53.156;17.960;2024-01-30T13:07:43;8.70;99.90
17726;DHT22;8983;53.156;17.960;2024-01-30T13:10:11;8.70;99.90
17726;DHT22;8983;53.156;17.960;2024-01-30T13:12:39;8.70;99.90
17726;DHT22;8983;53.156;17.960;2024-01-30T13:15:08;8.70;99.90
17726;DHT22;8983;53.156;17.960;2024-01-30T13:17:38;8.50;99.90
17726;DHT22;8983;53.156;17.960;2024-01-30T13:20:07;8.50;99.90
17726;DHT22;8983;53.156;17.960;2024-01-30T13:22:39;8.50;99.90
17726;DHT22;8983;53.156;17.960;2024-01-30T13:25:07;8.40;99.90
17726;DHT22;8983;53.156;17.960;2024-01-30T13:27:36;8.40;99.90
17726;DHT22;8983;53.156;17.960;2024-01-30T13:30:07;8.40;99.90
17726;DHT22;8983;53.156;17.960;2024-01-30T13:32:36;8.30;99.90
17726;DHT22;8983;53.156;17.960;2024-01-30T13:35:05;8.40;99.90
17726;DHT22;8983;53.156;17.960;2024-01-30T13:37:33;8.20;99.90
17726;DHT22;8983;53.156;17.960;2024-01-30T13:40:05;8.20;99.90
17726;DHT22;8983;53.156;17.960;2024-01-30T13:42:39;8.10;99.90
17726;DHT22;8983;53.156;17.960;2024-01-30T13:45:08;8.10;99.90
17726;DHT22;8983;53.156;17.960;2024-01-30T13:47:38;8.20;99.90
17726;DHT22;8983;53.156;17.960;2024-01-30T13:50:06;8.60;99.90
17726;DHT22;8983;53.156;17.960;2024-01-30T13:52:35;8.00;99.90
17726;DHT22;8983;53.156;17.960;2024-01-30T13:55:12;8.20;99.90
17726;DHT22;8983;53.156;17.960;2024-01-30T13:57:40;8.00;99.90
17726;DHT22;8983;53.156;17.960;2024-01-30T14:00:10;7.90;99.90
17726;DHT22;8983;53.156;17.960;2024-01-30T14:02:39;7.90;99.90
17726;DHT22;8983;53.156;17.960;2024-01-30T14:05:07;7.80;99.90
17726;DHT22;8983;53.156;17.960;2024-01-30T14:07:37;7.70;99.90
17726;DHT22;8983;53.156;17.960;2024-01-30T14:10:07;7.60;99.90
17726;DHT22;8983;53.156;17.960;2024-01-30T14:12:41;7.60;99.90
17726;DHT22;8983;53.156;17.960;2024-01-30T14:15:10;7.50;99.90
17726;DHT22;8983;53.156;17.960;2024-01-30T14:17:53;7.40;99.90
17726;DHT22;8983;53.156;17.960;2024-01-30T14:20:22;7.40;99.90
17726;DHT22;8983;53.156;17.960;2024-01-30T14:22:50;7.40;99.90
17726;DHT22;8983;53.156;17.960;2024-01-30T14:25:20;7.30;99.90
17726;DHT22;8983;53.156;17.960;2024-01-30T14:27:49;7.30;99.90
17726;DHT22;8983;53.156;17.960;2024-01-30T14:30:18;7.30;99.90
17726;DHT22;8983;53.156;17.960;2024-01-30T14:32:46;7.30;99.90
17726;DHT22;8983;53.156;17.960;2024-01-30T14:35:15;7.30;99.90
17726;DHT22;8983;53.156;17.960;2024-01-30T14:37:43;7.30;99.90
17726;DHT22;8983;53.156;17.960;2024-01-30T14:40:12;7.20;99.90
17726;DHT22;8983;53.156;17.960;2024-01-30T14:42:40;7.40;99.90
17726;DHT22;8983;53.156;17.960;2024-01-30T14:45:10;7.40;99.90
17726;DHT22;8983;53.156;17.960;2024-01-30T14:47:38;7.10;99.90
17726;DHT22;8983;53.156;17.960;2024-01-30T14:50:08;7.10;99.90
17726;DHT22;8983;53.156;17.960;2024-01-30T14:52:36;7.10;99.90
17726;DHT22;8983;53.156;17.960;2024-01-30T14:55:07;7.10;99.90
17726;DHT22;8983;53.156;17.960;2024-01-30T14:57:36;7.00;99.90
17726;DHT22;8983;53.156;17.960;2024-01-30T15:00:06;6.90;99.90
17726;DHT22;8983;53.156;17.960;2024-01-30T15:02:37;6.80;99.90
17726;DHT22;8983;53.156;17.960;2024-01-30T15:05:05;6.90;99.90
17726;DHT22;8983;53.156;17.960;2024-01-30T15:07:34;6.70;99.90
17726;DHT22;8983;53.156;17.960;2024-01-30T15:10:07;6.60;99.90
17726;DHT22;8983;53.156;17.960;2024-01-30T15:12:36;6.60;99.90
17726;DHT22;8983;53.156;17.960;2024-01-30T15:15:06;6.50;99.90
17726;DHT22;8983;53.156;17.960;2024-01-30T15:17:37;6.40;99.90
17726;DHT22;8983;53.156;17.960;2024-01-30T15:20:06;6.30;99.90
17726;DHT22;8983;53.156;17.960;2024-01-30T15:22:35;6.30;99.90
17726;DHT22;8983;53.156;17.960;2024-01-30T15:25:04;6.20;99.90
17726;DHT22;8983;53.156;17.960;2024-01-30T15:27:32;6.10;99.90
17726;DHT22;8983;53.156;17.960;2024-01-30T15:30:01;6.00;99.90
17726;DHT22;8983;53.156;17.960;2024-01-30T15:32:29;6.00;99.90
17726;DHT22;8983;53.156;17.960;2024-01-30T15:35:00;5.90;99.90
17726;DHT22;8983;53.156;17.960;2024-01-30T15:37:31;5.80;99.90
17726;DHT22;8983;53.156;17.960;2024-01-30T15:40:00;5.70;99.90
17726;DHT22;8983;53.156;17.960;2024-01-30T15:42:29;5.70;99.90
17726;DHT22;8983;53.156;17.960;2024-01-30T15:44:57;5.60;99.90
17726;DHT22;8983;53.156;17.960;2024-01-30T15:47:26;5.60;99.90
17726;DHT22;8983;53.156;17.960;2024-01-30T15:49:54;5.50;99.90